createdAt,value
2019-01-06T00:01:16.068Z,80.46
2019-01-06T00:04:21.293Z,80.73
2019-01-06T00:07:11.122Z,80.93
2019-01-06T00:09:59.519Z,80.97
2019-01-06T00:12:47.736Z,81.15
2019-01-06T00:15:37.667Z,81.59
2019-01-06T00:18:33.569Z,81.76
2019-01-06T00:21:26.191Z,81.43
2019-01-06T00:24:34.475Z,81.35
2019-01-06T00:27:27.190Z,81.33
2019-01-06T00:30:15.656Z,81.02
2019-01-06T00:32:58.713Z,81.29
2019-01-06T00:35:54.413Z,81.28
2019-01-06T00:38:44.250Z,81.26
2019-01-06T00:41:40.949Z,81.15
2019-01-06T00:44:48.836Z,81.22
2019-01-06T00:47:37.361Z,81.08
2019-01-06T00:50:23.797Z,80.96
2019-01-06T00:53:28.681Z,80.89
2019-01-06T00:56:17.168Z,80.60
2019-01-06T00:59:09.082Z,80.59
2019-01-06T01:02:04.807Z,80.50
2019-01-06T01:05:07.044Z,80.54
2019-01-06T01:07:59.933Z,80.75
2019-01-06T01:10:48.327Z,80.77
2019-01-06T01:13:36.775Z,80.55
2019-01-06T01:16:25.215Z,80.36
2019-01-06T01:19:13.807Z,80.20
2019-01-06T01:22:09.643Z,80.22
2019-01-06T01:24:58.219Z,80.52
2019-01-06T01:27:48.102Z,80.66
2019-01-06T01:30:40.955Z,80.68
2019-01-06T01:33:42.844Z,80.42
2019-01-06T01:36:25.906Z,80.61
2019-01-06T01:39:15.822Z,81.04
2019-01-06T01:42:11.635Z,80.79
2019-01-06T01:45:01.509Z,80.77
2019-01-06T01:47:57.454Z,80.76
2019-01-06T01:50:46.194Z,80.70
2019-01-06T01:53:37.293Z,80.99
2019-01-06T01:56:33.219Z,81.15
2019-01-06T01:59:21.704Z,81.32
2019-01-06T02:02:21.087Z,81.13
2019-01-06T02:05:28.970Z,81.42
2019-01-06T02:08:25.804Z,81.51
2019-01-06T02:11:08.420Z,81.05
2019-01-06T02:13:57.272Z,80.81
2019-01-06T02:16:46.132Z,80.64
2019-01-06T02:19:36.641Z,80.61
2019-01-06T02:22:23.540Z,80.54
2019-01-06T02:25:12.123Z,80.01
2019-01-06T02:28:08.128Z,79.49
2019-01-06T02:30:52.096Z,79.84
2019-01-06T02:33:37.301Z,79.56
2019-01-06T02:36:26.167Z,79.33
2019-01-06T02:39:14.640Z,79.61
2019-01-06T02:42:06.417Z,79.51
2019-01-06T02:45:08.270Z,79.37
2019-01-06T02:47:56.866Z,79.26
2019-01-06T02:50:57.653Z,79.68
2019-01-06T02:53:52.309Z,79.64
2019-01-06T02:56:40.864Z,79.80
2019-01-06T02:59:29.600Z,79.96
2019-01-06T03:02:19.434Z,79.89
2019-01-06T03:04:58.224Z,79.96
2019-01-06T03:07:48.040Z,79.74
2019-01-06T03:10:50.162Z,79.72
2019-01-06T03:13:31.462Z,80.25
2019-01-06T03:16:24.496Z,79.77
2019-01-06T03:19:14.481Z,80.27
2019-01-06T03:22:03.754Z,80.16
2019-01-06T03:24:47.494Z,80.36
2019-01-06T03:27:55.761Z,80.55
2019-01-06T03:30:48.630Z,80.68
2019-01-06T03:33:37.418Z,81.00
2019-01-06T03:36:29.041Z,81.14
2019-01-06T03:39:22.092Z,80.79
2019-01-06T03:42:17.515Z,80.67
2019-01-06T03:45:19.549Z,80.49
2019-01-06T03:48:21.813Z,80.66
2019-01-06T03:51:14.654Z,80.23
2019-01-06T03:54:05.312Z,80.11
2019-01-06T03:56:53.677Z,79.65
2019-01-06T03:59:49.642Z,79.75
2019-01-06T04:02:39.509Z,79.54
2019-01-06T04:05:29.354Z,79.76
2019-01-06T04:08:28.278Z,79.69
2019-01-06T04:11:15.376Z,79.70
2019-01-06T04:14:13.518Z,79.66
2019-01-06T04:17:18.521Z,79.47
2019-01-06T04:20:14.145Z,79.38
2019-01-06T04:23:02.980Z,79.15
2019-01-06T04:25:51.282Z,79.28
2019-01-06T04:28:41.141Z,79.07
2019-01-06T04:31:34.154Z,79.26
2019-01-06T04:34:22.875Z,78.76
2019-01-06T04:37:11.638Z,78.37
2019-01-06T04:40:06.514Z,78.13
2019-01-06T04:42:54.903Z,78.45
2019-01-06T04:45:44.731Z,78.09
2019-01-06T04:48:27.645Z,77.55
2019-01-06T04:51:17.930Z,77.57
2019-01-06T04:54:13.702Z,77.76
2019-01-06T04:57:02.375Z,77.59
2019-01-06T04:59:51.942Z,77.72
2019-01-06T05:02:49.035Z,77.40
2019-01-06T05:05:54.223Z,77.12
2019-01-06T05:08:46.894Z,77.71
2019-01-06T05:11:33.366Z,77.38
2019-01-06T05:14:29.516Z,77.32
2019-01-06T05:17:19.281Z,77.39
2019-01-06T05:20:15.342Z,77.52
2019-01-06T05:23:20.844Z,77.21
2019-01-06T05:26:25.977Z,77.28
2019-01-06T05:29:14.803Z,77.32
2019-01-06T05:32:03.533Z,77.48
2019-01-06T05:34:52.207Z,77.31
2019-01-06T05:37:48.079Z,77.62
2019-01-06T05:40:42.866Z,77.42
2019-01-06T05:43:31.876Z,77.15
2019-01-06T05:46:21.918Z,77.14
2019-01-06T05:49:14.821Z,76.77
2019-01-06T05:52:16.966Z,76.93
2019-01-06T05:55:12.866Z,76.26
2019-01-06T05:58:01.629Z,76.14
2019-01-06T06:01:09.550Z,75.91
2019-01-06T06:04:08.035Z,75.94
2019-01-06T06:06:56.758Z,75.55
2019-01-06T06:09:52.485Z,75.10
2019-01-06T06:12:54.396Z,75.27
2019-01-06T06:15:59.333Z,74.78
2019-01-06T06:18:58.074Z,75.04
2019-01-06T06:21:46.872Z,74.84
2019-01-06T06:24:35.250Z,75.58
2019-01-06T06:27:24.092Z,75.57
2019-01-06T06:30:14.778Z,76.14
2019-01-06T06:33:23.131Z,76.33
2019-01-06T06:36:11.696Z,76.09
2019-01-06T06:39:00.452Z,76.20
2019-01-06T06:41:48.552Z,76.15
2019-01-06T06:44:50.765Z,76.10
2019-01-06T06:47:43.393Z,75.79
2019-01-06T06:50:36.764Z,75.87
2019-01-06T06:53:37.924Z,75.80
2019-01-06T06:56:26.891Z,76.10
2019-01-06T06:59:32.107Z,76.12
2019-01-06T07:03:10.131Z,76.16
2019-01-06T07:06:06.583Z,76.17
2019-01-06T07:08:57.334Z,76.34
2019-01-06T07:11:49.938Z,75.83
2019-01-06T07:14:32.885Z,76.03
2019-01-06T07:18:08.941Z,75.34
2019-01-06T07:21:02.927Z,75.12
2019-01-06T07:23:55.849Z,74.68
2019-01-06T07:26:49.523Z,74.90
2019-01-06T07:29:37.935Z,74.98
2019-01-06T07:32:24.510Z,74.88
2019-01-06T07:35:13.098Z,74.89
2019-01-06T07:38:21.375Z,74.23
2019-01-06T07:41:09.099Z,72.96
2019-01-06T07:44:12.078Z,76.03
2019-01-06T07:47:00.583Z,73.36
2019-01-06T07:49:49.125Z,72.17
2019-01-06T07:52:39.009Z,72.31
2019-01-06T07:55:27.747Z,72.13
2019-01-06T07:58:09.718Z,71.60
2019-01-06T08:00:58.119Z,71.32
2019-01-06T08:03:49.081Z,72.76
2019-01-06T08:06:37.770Z,73.56
2019-01-06T08:09:25.300Z,74.15
2019-01-06T08:12:13.093Z,74.93
2019-01-06T08:15:01.492Z,74.89
2019-01-06T08:18:09.746Z,74.96
2019-01-06T08:21:05.817Z,75.45
2019-01-06T08:23:54.225Z,74.83
2019-01-06T08:26:42.969Z,74.07
2019-01-06T08:29:44.861Z,73.95
2019-01-06T08:32:49.844Z,74.67
2019-01-06T08:35:38.444Z,74.31
2019-01-06T08:38:34.494Z,74.55
2019-01-06T08:41:24.387Z,74.21
2019-01-06T08:44:12.861Z,74.18
2019-01-06T08:47:05.753Z,74.60
2019-01-06T08:49:54.475Z,74.24
2019-01-06T08:52:45.015Z,74.33
2019-01-06T08:55:50.028Z,73.81
2019-01-06T08:58:45.913Z,73.72
2019-01-06T09:01:34.405Z,73.38
2019-01-06T09:04:23.093Z,74.06
2019-01-06T09:07:11.688Z,73.79
2019-01-06T09:09:59.442Z,74.34
2019-01-06T09:12:48.392Z,74.59
2019-01-06T09:15:44.029Z,74.15
2019-01-06T09:18:48.951Z,73.58
2019-01-06T09:21:37.311Z,73.75
2019-01-06T09:24:31.318Z,74.33
2019-01-06T09:27:22.377Z,74.71
2019-01-06T09:30:11.216Z,74.76
2019-01-06T09:33:13.612Z,74.60
2019-01-06T09:36:10.899Z,74.61
2019-01-06T09:39:07.980Z,74.27
2019-01-06T09:42:03.775Z,73.91
2019-01-06T09:44:52.696Z,74.26
2019-01-06T09:48:01.009Z,74.63
2019-01-06T09:50:54.016Z,74.69
2019-01-06T09:53:42.863Z,74.98
2019-01-06T09:56:31.541Z,74.82
2019-01-06T09:59:21.412Z,74.67
2019-01-06T10:02:17.130Z,74.09
2019-01-06T10:05:06.989Z,74.64
2019-01-06T10:08:06.960Z,74.50
2019-01-06T10:11:00.126Z,75.00
2019-01-06T10:13:48.871Z,75.01
2019-01-06T10:16:38.083Z,75.26
2019-01-06T10:19:43.143Z,75.26
2019-01-06T10:22:26.318Z,75.37
2019-01-06T10:25:14.834Z,75.27
2019-01-06T10:28:19.826Z,74.89
2019-01-06T10:31:22.162Z,75.47
2019-01-06T10:34:15.085Z,75.43
2019-01-06T10:37:03.571Z,75.56
2019-01-06T10:39:53.455Z,75.56
2019-01-06T10:42:58.630Z,75.59
2019-01-06T10:46:03.509Z,76.23
2019-01-06T10:48:52.446Z,75.80
2019-01-06T10:51:40.591Z,75.38
2019-01-06T10:54:39.318Z,75.38
2019-01-06T10:57:44.368Z,75.94
2019-01-06T11:00:43.033Z,76.16
2019-01-06T11:03:47.967Z,76.35
2019-01-06T11:06:40.601Z,76.24
2019-01-06T11:09:42.873Z,76.08
2019-01-06T11:12:31.351Z,75.98
2019-01-06T11:15:27.273Z,76.19
2019-01-06T11:18:15.879Z,76.25
2019-01-06T11:20:57.838Z,75.96
2019-01-06T11:23:57.025Z,76.70
2019-01-06T11:26:59.193Z,76.37
2019-01-06T11:29:49.116Z,76.87
2019-01-06T11:32:37.686Z,76.72
2019-01-06T11:35:26.212Z,76.61
2019-01-06T11:38:14.640Z,77.18
2019-01-06T11:41:10.578Z,76.41
2019-01-06T11:43:59.139Z,76.88
2019-01-06T11:47:16.367Z,76.52
2019-01-06T11:50:12.280Z,76.51
2019-01-06T11:53:02.157Z,76.64
2019-01-06T11:56:07.430Z,76.57
2019-01-06T11:58:57.138Z,76.48
2019-01-06T12:01:48.258Z,76.53
2019-01-06T12:04:36.872Z,76.43
2019-01-06T12:07:25.603Z,76.91
2019-01-06T12:10:14.633Z,77.21
2019-01-06T12:13:00.921Z,77.11
2019-01-06T12:16:09.041Z,76.74
2019-01-06T12:18:57.562Z,76.80
2019-01-06T12:21:45.999Z,76.30
2019-01-06T12:24:34.880Z,76.77
2019-01-06T12:27:30.856Z,76.54
2019-01-06T12:30:23.476Z,76.29
2019-01-06T12:33:22.223Z,76.20
2019-01-06T12:36:17.853Z,76.39
2019-01-06T12:39:07.745Z,76.03
2019-01-06T12:42:13.019Z,76.16
2019-01-06T12:45:11.932Z,76.55
2019-01-06T12:48:17.211Z,76.32
2019-01-06T12:51:19.453Z,76.42
2019-01-06T12:54:08.278Z,76.73
2019-01-06T12:56:56.747Z,76.06
2019-01-06T12:59:58.718Z,76.32
2019-01-06T13:02:47.139Z,76.09
2019-01-06T13:05:46.016Z,76.04
2019-01-06T13:08:48.285Z,75.49
2019-01-06T13:11:50.424Z,75.68
2019-01-06T13:14:37.142Z,75.46
2019-01-06T13:17:21.919Z,75.18
2019-01-06T13:20:10.742Z,74.46
2019-01-06T13:23:19.023Z,74.55
2019-01-06T13:26:08.915Z,74.12
2019-01-06T13:29:14.073Z,73.93
2019-01-06T13:32:12.664Z,74.56
2019-01-06T13:35:01.441Z,74.52
2019-01-06T13:37:50.485Z,69.23
2019-01-06T13:40:39.100Z,69.18
2019-01-06T13:43:35.100Z,68.92
2019-01-06T13:46:40.396Z,67.80
2019-01-06T13:49:28.502Z,68.05
2019-01-06T13:52:27.475Z,67.84
2019-01-06T13:55:17.349Z,67.94
2019-01-06T13:58:00.460Z,68.08
2019-01-06T14:00:43.063Z,68.48
2019-01-06T14:03:39.717Z,68.26
2019-01-06T14:06:28.263Z,68.55
2019-01-06T14:09:36.595Z,68.98
2019-01-06T14:12:35.283Z,68.62
2019-01-06T14:15:24.052Z,69.53
2019-01-06T14:18:12.625Z,70.02
2019-01-06T14:21:11.653Z,69.75
2019-01-06T14:24:01.518Z,69.32
2019-01-06T14:26:50.010Z,69.93
2019-01-06T14:29:34.397Z,69.72
2019-01-06T14:32:36.378Z,70.33
2019-01-06T14:35:29.243Z,70.87
2019-01-06T14:38:19.142Z,70.18
2019-01-06T14:41:24.508Z,70.49
2019-01-06T14:44:26.780Z,70.83
2019-01-06T14:47:15.507Z,71.25
2019-01-06T14:50:04.305Z,71.51
2019-01-06T14:52:57.010Z,71.41
2019-01-06T14:55:58.911Z,71.36
2019-01-06T14:58:48.865Z,71.60
2019-01-06T15:01:46.855Z,71.52
2019-01-06T15:04:35.416Z,70.98
2019-01-06T15:07:24.204Z,70.68
2019-01-06T15:10:12.759Z,70.87
2019-01-06T15:13:00.222Z,71.21
2019-01-06T15:16:05.548Z,71.27
2019-01-06T15:19:07.857Z,70.23
2019-01-06T15:22:16.201Z,69.69
2019-01-06T15:25:04.659Z,69.74
2019-01-06T15:28:00.640Z,70.10
2019-01-06T15:30:55.547Z,70.48
2019-01-06T15:33:43.447Z,70.56
2019-01-06T15:36:33.469Z,71.32
2019-01-06T15:39:26.799Z,71.59
2019-01-06T15:42:22.625Z,70.42
2019-01-06T15:45:12.566Z,70.60
2019-01-06T15:48:12.449Z,69.85
2019-01-06T15:51:02.323Z,69.95
2019-01-06T15:53:51.103Z,70.25
2019-01-06T15:56:44.072Z,69.81
2019-01-06T15:59:49.200Z,69.27
2019-01-06T16:02:44.903Z,69.36
2019-01-06T16:05:54.316Z,69.30
2019-01-06T16:08:54.650Z,69.87
2019-01-06T16:11:52.016Z,68.97
2019-01-06T16:14:55.041Z,68.99
2019-01-06T16:17:47.705Z,69.34
2019-01-06T16:20:30.659Z,69.51
2019-01-06T16:23:38.731Z,69.59
2019-01-06T16:26:34.877Z,69.79
2019-01-06T16:29:27.575Z,69.81
2019-01-06T16:32:26.265Z,70.22
2019-01-06T16:35:14.988Z,70.17
2019-01-06T16:38:03.745Z,69.79
2019-01-06T16:40:47.077Z,70.06
2019-01-06T16:43:31.267Z,70.16
2019-01-06T16:46:19.720Z,70.51
2019-01-06T16:49:08.565Z,70.11
2019-01-06T16:52:01.562Z,70.70
2019-01-06T16:55:04.467Z,72.25
2019-01-06T16:57:53.238Z,72.70
2019-01-06T17:00:43.081Z,72.87
2019-01-06T17:03:43.667Z,72.58
2019-01-06T17:06:43.932Z,72.95
2019-01-06T17:09:32.681Z,72.73
2019-01-06T17:12:20.738Z,72.42
2019-01-06T17:15:10.680Z,72.69
2019-01-06T17:18:09.946Z,72.81
2019-01-06T17:20:58.508Z,73.45
2019-01-06T17:23:51.441Z,73.40
2019-01-06T17:26:50.565Z,72.86
2019-01-06T17:29:40.433Z,73.07
2019-01-06T17:32:29.066Z,73.05
2019-01-06T17:35:15.178Z,73.14
2019-01-06T17:38:03.979Z,73.49
2019-01-06T17:40:52.819Z,72.74
2019-01-06T17:43:48.845Z,72.18
2019-01-06T17:46:56.994Z,71.87
2019-01-06T17:50:04.956Z,70.45
2019-01-06T17:52:53.352Z,69.78
2019-01-06T17:56:01.249Z,70.04
2019-01-06T17:58:51.102Z,70.99
2019-01-06T18:01:43.792Z,71.82
2019-01-06T18:04:32.374Z,72.23
2019-01-06T18:07:25.045Z,72.27
2019-01-06T18:10:22.076Z,71.52
2019-01-06T18:13:13.371Z,71.42
2019-01-06T18:16:22.946Z,72.40
2019-01-06T18:19:19.259Z,72.92
2019-01-06T18:22:21.247Z,73.36
2019-01-06T18:25:09.963Z,72.69
2019-01-06T18:28:07.302Z,72.16
2019-01-06T18:31:12.505Z,73.23
2019-01-06T18:34:01.014Z,74.62
2019-01-06T18:36:53.790Z,75.71
2019-01-06T18:39:42.689Z,75.64
2019-01-06T18:42:31.465Z,75.65
2019-01-06T18:45:30.205Z,75.85
2019-01-06T18:48:23.179Z,74.54
2019-01-06T18:51:11.964Z,74.37
2019-01-06T18:54:04.729Z,75.97
2019-01-06T18:57:03.877Z,76.50
2019-01-06T18:59:45.518Z,77.31
2019-01-06T19:02:34.305Z,76.97
2019-01-06T19:05:24.165Z,77.13
2019-01-06T19:08:14.010Z,76.96
2019-01-06T19:11:03.496Z,77.04
2019-01-06T19:13:59.685Z,77.11
2019-01-06T19:16:55.817Z,77.01
2019-01-06T19:19:51.860Z,77.01
2019-01-06T19:22:41.432Z,76.92
2019-01-06T19:25:29.832Z,77.56
2019-01-06T19:28:18.392Z,78.09
2019-01-06T19:31:08.241Z,77.84
2019-01-06T19:33:58.087Z,78.08
2019-01-06T19:36:51.027Z,78.14
2019-01-06T19:39:55.289Z,78.29
2019-01-06T19:42:45.145Z,78.42
2019-01-06T19:45:42.738Z,78.81
2019-01-06T19:48:31.393Z,78.71
2019-01-06T19:51:24.036Z,78.78
2019-01-06T19:54:13.970Z,78.41
2019-01-06T19:57:02.733Z,78.21
2019-01-06T20:00:01.387Z,78.00
2019-01-06T20:02:54.524Z,78.04
2019-01-06T20:05:44.380Z,77.83
2019-01-06T20:08:33.300Z,77.37
2019-01-06T20:11:21.954Z,75.95
2019-01-06T20:14:14.115Z,75.47
2019-01-06T20:17:04.105Z,75.33
2019-01-06T20:19:53.964Z,76.12
2019-01-06T20:22:42.633Z,76.79
2019-01-06T20:25:44.619Z,76.65
2019-01-06T20:28:33.304Z,75.11
2019-01-06T20:31:41.339Z,72.78
2019-01-06T20:34:31.369Z,73.27
2019-01-06T20:37:20.072Z,73.83
2019-01-06T20:40:08.665Z,74.22
2019-01-06T20:42:57.739Z,75.04
2019-01-06T20:45:54.930Z,75.69
2019-01-06T20:48:44.870Z,75.80
2019-01-06T20:51:33.878Z,75.44
2019-01-06T20:54:25.791Z,75.21
2019-01-06T20:57:28.013Z,75.02
2019-01-06T21:00:16.770Z,75.78
2019-01-06T21:03:10.271Z,76.26
2019-01-06T21:06:12.243Z,76.07
2019-01-06T21:09:01.477Z,75.90
2019-01-06T21:12:05.333Z,75.95
2019-01-06T21:14:53.726Z,76.73
2019-01-06T21:17:52.640Z,77.41
2019-01-06T21:20:52.163Z,77.59
2019-01-06T21:23:40.913Z,77.72
2019-01-06T21:26:29.418Z,77.84
2019-01-06T21:29:29.655Z,78.34
2019-01-06T21:32:11.755Z,78.79
2019-01-06T21:35:17.448Z,78.75
2019-01-06T21:38:12.012Z,78.66
2019-01-06T21:41:01.142Z,78.63
2019-01-06T21:43:57.389Z,78.59
2019-01-06T21:46:46.073Z,77.68
2019-01-06T21:49:36.095Z,77.61
2019-01-06T21:52:23.067Z,78.06
2019-01-06T21:55:12.406Z,78.32
2019-01-06T21:58:08.264Z,78.30
2019-01-06T22:00:56.851Z,78.29
2019-01-06T22:03:45.480Z,78.49
2019-01-06T22:06:47.600Z,78.52
2019-01-06T22:09:37.505Z,78.27
2019-01-06T22:12:30.190Z,78.01
2019-01-06T22:15:19.553Z,78.29
2019-01-06T22:18:18.590Z,77.94
2019-01-06T22:21:08.576Z,77.82
2019-01-06T22:24:01.729Z,77.83
2019-01-06T22:26:46.098Z,77.57
2019-01-06T22:29:34.794Z,77.56
2019-01-06T22:32:27.433Z,77.70
2019-01-06T22:35:20.142Z,78.19
2019-01-06T22:38:09.957Z,78.32
2019-01-06T22:40:58.694Z,78.48
2019-01-06T22:43:48.614Z,78.45
2019-01-06T22:46:42.629Z,78.24
2019-01-06T22:49:31.274Z,77.91
2019-01-06T22:52:37.049Z,78.06
2019-01-06T22:55:31.578Z,78.54
2019-01-06T22:58:20.095Z,78.07
2019-01-06T23:01:10.054Z,77.91
2019-01-06T23:04:02.847Z,77.64
2019-01-06T23:06:58.580Z,77.51
2019-01-06T23:09:54.243Z,77.53
2019-01-06T23:12:43.048Z,77.11
2019-01-06T23:15:32.887Z,76.73
2019-01-06T23:18:21.569Z,75.92
2019-01-06T23:21:11.421Z,75.32
2019-01-06T23:24:07.326Z,74.86
2019-01-06T23:27:03.066Z,75.39
2019-01-06T23:30:11.188Z,75.73
2019-01-06T23:33:07.102Z,75.67
2019-01-06T23:35:56.984Z,75.33
2019-01-06T23:38:45.789Z,75.54
2019-01-06T23:41:53.865Z,75.57
2019-01-06T23:44:56.061Z,75.64
2019-01-06T23:47:48.945Z,75.54
2019-01-06T23:50:38.810Z,75.29
2019-01-06T23:53:31.750Z,75.26
2019-01-06T23:56:27.421Z,75.97
2019-01-06T23:59:35.704Z,75.72
